sensor_id;sensor_type;location;lat;lon;timestamp;temperature;humidity
67161;DHT22;54088;52.238;21.104;2022-09-29T00:02:17;10.30;93.80
67161;DHT22;54088;52.238;21.104;2022-09-29T00:04:42;10.40;93.70
67161;DHT22;54088;52.238;21.104;2022-09-29T00:07:08;10.40;93.60
67161;DHT22;54088;52.238;21.104;2022-09-29T00:09:33;10.50;93.40
67161;DHT22;54088;52.238;21.104;2022-09-29T00:11:59;10.50;93.30
67161;DHT22;54088;52.238;21.104;2022-09-29T00:14:25;10.50;93.30
67161;DHT22;54088;52.238;21.104;2022-09-29T00:16:51;10.60;93.20
67161;DHT22;54088;52.238;21.104;2022-09-29T00:19:18;10.60;93.10
67161;DHT22;54088;52.238;21.104;2022-09-29T00:21:44;10.60;93.00
67161;DHT22;54088;52.238;21.104;2022-09-29T00:24:10;10.60;93.10
67161;DHT22;54088;52.238;21.104;2022-09-29T00:26:36;10.60;93.10
67161;DHT22;54088;52.238;21.104;2022-09-29T00:29:02;10.60;93.00
67161;DHT22;54088;52.238;21.104;2022-09-29T00:31:30;10.50;92.90
67161;DHT22;54088;52.238;21.104;2022-09-29T00:33:57;10.50;93.10
67161;DHT22;54088;52.238;21.104;2022-09-29T00:36:23;10.50;93.10
67161;DHT22;54088;52.238;21.104;2022-09-29T00:38:50;10.50;93.10
67161;DHT22;54088;52.238;21.104;2022-09-29T00:41:26;10.50;93.00
67161;DHT22;54088;52.238;21.104;2022-09-29T00:43:56;10.50;92.80
67161;DHT22;54088;52.238;21.104;2022-09-29T00:48:58;10.50;92.70
67161;DHT22;54088;52.238;21.104;2022-09-29T00:51:26;10.50;92.70
67161;DHT22;54088;52.238;21.104;2022-09-29T00:53:53;10.50;92.50
67161;DHT22;54088;52.238;21.104;2022-09-29T00:56:19;10.50;92.60
67161;DHT22;54088;52.238;21.104;2022-09-29T00:58:52;10.50;92.60
67161;DHT22;54088;52.238;21.104;2022-09-29T01:01:23;10.50;92.40
67161;DHT22;54088;52.238;21.104;2022-09-29T01:03:53;10.40;92.60
67161;DHT22;54088;52.238;21.104;2022-09-29T01:06:23;10.50;92.40
67161;DHT22;54088;52.238;21.104;2022-09-29T01:09:21;10.40;92.40
67161;DHT22;54088;52.238;21.104;2022-09-29T01:11:49;10.40;92.40
67161;DHT22;54088;52.238;21.104;2022-09-29T01:14:17;10.40;92.40
67161;DHT22;54088;52.238;21.104;2022-09-29T01:16:43;10.40;92.30
67161;DHT22;54088;52.238;21.104;2022-09-29T01:19:27;10.40;92.30
67161;DHT22;54088;52.238;21.104;2022-09-29T01:22:06;10.40;92.30
67161;DHT22;54088;52.238;21.104;2022-09-29T01:24:47;10.40;92.30
67161;DHT22;54088;52.238;21.104;2022-09-29T01:33:00;10.30;92.30
67161;DHT22;54088;52.238;21.104;2022-09-29T01:35:47;10.20;92.30
67161;DHT22;54088;52.238;21.104;2022-09-29T01:38:48;10.20;92.40
67161;DHT22;54088;52.238;21.104;2022-09-29T01:46:44;10.10;92.50
67161;DHT22;54088;52.238;21.104;2022-09-29T01:49:12;10.10;92.70
67161;DHT22;54088;52.238;21.104;2022-09-29T01:57:30;9.90;92.80
67161;DHT22;54088;52.238;21.104;2022-09-29T02:00:05;9.90;92.90
67161;DHT22;54088;52.238;21.104;2022-09-29T02:02:40;9.90;92.90
67161;DHT22;54088;52.238;21.104;2022-09-29T02:05:15;9.90;93.00
67161;DHT22;54088;52.238;21.104;2022-09-29T02:07:43;9.90;92.90
67161;DHT22;54088;52.238;21.104;2022-09-29T02:10:14;9.90;92.90
67161;DHT22;54088;52.238;21.104;2022-09-29T02:12:43;9.90;92.90
67161;DHT22;54088;52.238;21.104;2022-09-29T02:15:13;9.90;92.90
67161;DHT22;54088;52.238;21.104;2022-09-29T02:17:44;10.00;92.80
67161;DHT22;54088;52.238;21.104;2022-09-29T02:20:12;9.90;92.80
67161;DHT22;54088;52.238;21.104;2022-09-29T02:22:39;9.90;92.90
67161;DHT22;54088;52.238;21.104;2022-09-29T02:25:08;9.90;92.80
67161;DHT22;54088;52.238;21.104;2022-09-29T02:27:35;9.90;92.90
67161;DHT22;54088;52.238;21.104;2022-09-29T02:30:02;9.90;92.60
67161;DHT22;54088;52.238;21.104;2022-09-29T02:32:28;9.90;92.60
67161;DHT22;54088;52.238;21.104;2022-09-29T02:34:55;9.80;92.50
67161;DHT22;54088;52.238;21.104;2022-09-29T02:40:15;9.80;92.60
67161;DHT22;54088;52.238;21.104;2022-09-29T02:45:35;9.90;92.50
67161;DHT22;54088;52.238;21.104;2022-09-29T03:00:05;9.90;92.30
67161;DHT22;54088;52.238;21.104;2022-09-29T03:02:40;9.80;92.30
67161;DHT22;54088;52.238;21.104;2022-09-29T03:05:11;9.70;92.30
67161;DHT22;54088;52.238;21.104;2022-09-29T03:07:38;9.60;92.30
67161;DHT22;54088;52.238;21.104;2022-09-29T03:10:05;9.60;92.50
67161;DHT22;54088;52.238;21.104;2022-09-29T03:12:32;9.60;92.60
67161;DHT22;54088;52.238;21.104;2022-09-29T03:14:58;9.60;92.70
67161;DHT22;54088;52.238;21.104;2022-09-29T03:17:23;9.70;92.50
67161;DHT22;54088;52.238;21.104;2022-09-29T03:19:49;9.70;92.30
67161;DHT22;54088;52.238;21.104;2022-09-29T03:22:15;9.70;92.10
67161;DHT22;54088;52.238;21.104;2022-09-29T03:24:40;9.70;92.10
67161;DHT22;54088;52.238;21.104;2022-09-29T03:27:07;9.70;92.10
67161;DHT22;54088;52.238;21.104;2022-09-29T03:29:34;9.80;92.10
67161;DHT22;54088;52.238;21.104;2022-09-29T03:32:00;9.80;91.90
67161;DHT22;54088;52.238;21.104;2022-09-29T03:34:26;9.90;91.90
67161;DHT22;54088;52.238;21.104;2022-09-29T03:36:51;9.90;91.90
67161;DHT22;54088;52.238;21.104;2022-09-29T03:39:17;10.00;91.90
67161;DHT22;54088;52.238;21.104;2022-09-29T03:41:43;10.00;91.70
67161;DHT22;54088;52.238;21.104;2022-09-29T03:44:08;10.00;91.60
67161;DHT22;54088;52.238;21.104;2022-09-29T03:46:34;10.00;91.60
67161;DHT22;54088;52.238;21.104;2022-09-29T03:49:00;9.90;91.50
67161;DHT22;54088;52.238;21.104;2022-09-29T03:51:25;9.90;91.40
67161;DHT22;54088;52.238;21.104;2022-09-29T03:53:51;9.90;91.30
67161;DHT22;54088;52.238;21.104;2022-09-29T03:56:16;9.90;91.30
67161;DHT22;54088;52.238;21.104;2022-09-29T03:58:42;9.90;91.30
67161;DHT22;54088;52.238;21.104;2022-09-29T04:01:08;9.90;91.20
67161;DHT22;54088;52.238;21.104;2022-09-29T04:03:33;9.90;91.30
67161;DHT22;54088;52.238;21.104;2022-09-29T04:05:59;9.90;91.20
67161;DHT22;54088;52.238;21.104;2022-09-29T04:08:25;9.90;91.20
67161;DHT22;54088;52.238;21.104;2022-09-29T04:10:50;9.90;91.00
67161;DHT22;54088;52.238;21.104;2022-09-29T04:13:16;9.80;91.00
67161;DHT22;54088;52.238;21.104;2022-09-29T04:15:42;9.80;90.90
67161;DHT22;54088;52.238;21.104;2022-09-29T04:18:07;9.80;90.90
67161;DHT22;54088;52.238;21.104;2022-09-29T04:20:33;9.80;90.80
67161;DHT22;54088;52.238;21.104;2022-09-29T04:22:59;9.70;90.90
67161;DHT22;54088;52.238;21.104;2022-09-29T04:25:26;9.70;90.90
67161;DHT22;54088;52.238;21.104;2022-09-29T04:27:52;9.70;90.90
67161;DHT22;54088;52.238;21.104;2022-09-29T04:30:18;9.80;90.90
67161;DHT22;54088;52.238;21.104;2022-09-29T04:32:44;9.70;90.90
67161;DHT22;54088;52.238;21.104;2022-09-29T04:35:10;9.70;90.80
67161;DHT22;54088;52.238;21.104;2022-09-29T04:37:36;9.70;90.90
67161;DHT22;54088;52.238;21.104;2022-09-29T04:40:02;9.70;91.00
67161;DHT22;54088;52.238;21.104;2022-09-29T04:42:28;9.70;90.90
67161;DHT22;54088;52.238;21.104;2022-09-29T04:44:54;9.70;90.80
67161;DHT22;54088;52.238;21.104;2022-09-29T04:47:20;9.70;90.80
67161;DHT22;54088;52.238;21.104;2022-09-29T04:49:45;9.70;90.90
67161;DHT22;54088;52.238;21.104;2022-09-29T04:52:11;9.70;91.00
67161;DHT22;54088;52.238;21.104;2022-09-29T04:54:37;9.80;90.80
67161;DHT22;54088;52.238;21.104;2022-09-29T04:57:03;9.80;90.80
67161;DHT22;54088;52.238;21.104;2022-09-29T04:59:29;9.90;90.60
67161;DHT22;54088;52.238;21.104;2022-09-29T05:01:54;9.90;90.70
67161;DHT22;54088;52.238;21.104;2022-09-29T05:04:20;10.00;90.60
67161;DHT22;54088;52.238;21.104;2022-09-29T05:06:46;10.00;90.60
67161;DHT22;54088;52.238;21.104;2022-09-29T05:09:12;10.00;90.50
67161;DHT22;54088;52.238;21.104;2022-09-29T05:11:38;10.00;90.60
67161;DHT22;54088;52.238;21.104;2022-09-29T05:14:04;10.00;90.60
67161;DHT22;54088;52.238;21.104;2022-09-29T05:16:30;10.10;90.50
67161;DHT22;54088;52.238;21.104;2022-09-29T05:18:55;10.00;90.60
67161;DHT22;54088;52.238;21.104;2022-09-29T05:21:21;10.10;90.60
67161;DHT22;54088;52.238;21.104;2022-09-29T05:23:47;10.10;90.60
67161;DHT22;54088;52.238;21.104;2022-09-29T05:26:13;10.20;90.60
67161;DHT22;54088;52.238;21.104;2022-09-29T05:28:42;10.20;90.50
67161;DHT22;54088;52.238;21.104;2022-09-29T05:31:09;10.30;90.50
67161;DHT22;54088;52.238;21.104;2022-09-29T05:33:35;10.30;90.40
67161;DHT22;54088;52.238;21.104;2022-09-29T05:36:05;10.30;90.20
67161;DHT22;54088;52.238;21.104;2022-09-29T05:38:35;10.30;90.10
67161;DHT22;54088;52.238;21.104;2022-09-29T05:41:05;10.40;90.10
67161;DHT22;54088;52.238;21.104;2022-09-29T05:43:32;10.40;90.00
67161;DHT22;54088;52.238;21.104;2022-09-29T05:46:01;10.40;89.90
67161;DHT22;54088;52.238;21.104;2022-09-29T05:48:28;10.50;89.70
67161;DHT22;54088;52.238;21.104;2022-09-29T05:50:57;10.50;89.70
67161;DHT22;54088;52.238;21.104;2022-09-29T05:53:24;10.60;89.10
67161;DHT22;54088;52.238;21.104;2022-09-29T05:55:49;10.60;88.80
67161;DHT22;54088;52.238;21.104;2022-09-29T05:58:15;10.60;88.80
67161;DHT22;54088;52.238;21.104;2022-09-29T06:00:41;10.60;88.80
67161;DHT22;54088;52.238;21.104;2022-09-29T06:03:07;10.60;89.00
67161;DHT22;54088;52.238;21.104;2022-09-29T06:05:36;10.60;88.80
67161;DHT22;54088;52.238;21.104;2022-09-29T06:08:02;10.70;88.90
67161;DHT22;54088;52.238;21.104;2022-09-29T06:10:28;10.80;88.80
67161;DHT22;54088;52.238;21.104;2022-09-29T06:12:54;10.90;88.50
67161;DHT22;54088;52.238;21.104;2022-09-29T06:15:21;11.00;88.40
67161;DHT22;54088;52.238;21.104;2022-09-29T06:17:53;10.90;87.90
67161;DHT22;54088;52.238;21.104;2022-09-29T06:20:19;10.90;87.90
67161;DHT22;54088;52.238;21.104;2022-09-29T06:22:44;11.20;88.00
67161;DHT22;54088;52.238;21.104;2022-09-29T06:25:10;11.30;86.90
67161;DHT22;54088;52.238;21.104;2022-09-29T06:27:35;11.20;86.90
67161;DHT22;54088;52.238;21.104;2022-09-29T06:30:01;11.20;87.00
67161;DHT22;54088;52.238;21.104;2022-09-29T06:32:27;11.20;87.10
67161;DHT22;54088;52.238;21.104;2022-09-29T06:34:53;11.10;87.00
67161;DHT22;54088;52.238;21.104;2022-09-29T06:37:38;11.20;87.20
67161;DHT22;54088;52.238;21.104;2022-09-29T06:40:07;11.20;86.70
67161;DHT22;54088;52.238;21.104;2022-09-29T06:42:34;11.20;86.50
67161;DHT22;54088;52.238;21.104;2022-09-29T06:44:59;11.20;86.70
67161;DHT22;54088;52.238;21.104;2022-09-29T06:47:25;11.20;86.50
67161;DHT22;54088;52.238;21.104;2022-09-29T06:49:51;11.10;86.40
67161;DHT22;54088;52.238;21.104;2022-09-29T06:52:17;11.10;86.50
67161;DHT22;54088;52.238;21.104;2022-09-29T06:54:42;11.10;86.60
67161;DHT22;54088;52.238;21.104;2022-09-29T06:57:09;11.20;86.80
67161;DHT22;54088;52.238;21.104;2022-09-29T06:59:34;11.40;87.00
67161;DHT22;54088;52.238;21.104;2022-09-29T07:02:00;11.50;86.50
67161;DHT22;54088;52.238;21.104;2022-09-29T07:04:26;11.70;85.50
67161;DHT22;54088;52.238;21.104;2022-09-29T07:06:52;11.90;84.70
67161;DHT22;54088;52.238;21.104;2022-09-29T07:09:18;12.20;84.20
67161;DHT22;54088;52.238;21.104;2022-09-29T07:11:46;12.50;82.80
67161;DHT22;54088;52.238;21.104;2022-09-29T07:14:16;12.60;82.00
67161;DHT22;54088;52.238;21.104;2022-09-29T07:16:42;12.60;81.30
67161;DHT22;54088;52.238;21.104;2022-09-29T07:19:09;12.60;80.70
67161;DHT22;54088;52.238;21.104;2022-09-29T07:21:34;12.70;81.10
67161;DHT22;54088;52.238;21.104;2022-09-29T07:24:00;12.70;80.40
67161;DHT22;54088;52.238;21.104;2022-09-29T07:26:26;12.40;79.30
67161;DHT22;54088;52.238;21.104;2022-09-29T07:28:52;12.10;78.90
67161;DHT22;54088;52.238;21.104;2022-09-29T07:31:19;11.80;80.40
67161;DHT22;54088;52.238;21.104;2022-09-29T07:33:46;11.80;81.80
67161;DHT22;54088;52.238;21.104;2022-09-29T07:36:14;11.80;81.20
67161;DHT22;54088;52.238;21.104;2022-09-29T07:38:40;11.70;81.60
67161;DHT22;54088;52.238;21.104;2022-09-29T07:41:08;11.80;81.90
67161;DHT22;54088;52.238;21.104;2022-09-29T07:43:35;11.90;81.40
67161;DHT22;54088;52.238;21.104;2022-09-29T07:46:01;11.90;80.80
67161;DHT22;54088;52.238;21.104;2022-09-29T07:48:27;12.00;80.70
67161;DHT22;54088;52.238;21.104;2022-09-29T07:51:00;11.90;80.10
67161;DHT22;54088;52.238;21.104;2022-09-29T07:53:26;12.00;79.70
67161;DHT22;54088;52.238;21.104;2022-09-29T07:55:52;12.20;79.80
67161;DHT22;54088;52.238;21.104;2022-09-29T07:58:18;12.30;80.20
67161;DHT22;54088;52.238;21.104;2022-09-29T08:00:43;12.40;79.80
67161;DHT22;54088;52.238;21.104;2022-09-29T08:03:09;12.70;79.70
67161;DHT22;54088;52.238;21.104;2022-09-29T08:05:35;12.90;78.20
67161;DHT22;54088;52.238;21.104;2022-09-29T08:08:02;13.10;77.10
67161;DHT22;54088;52.238;21.104;2022-09-29T08:10:29;13.40;76.60
67161;DHT22;54088;52.238;21.104;2022-09-29T08:12:55;13.60;75.40
67161;DHT22;54088;52.238;21.104;2022-09-29T08:15:21;13.70;75.30
67161;DHT22;54088;52.238;21.104;2022-09-29T08:17:47;13.70;75.00
67161;DHT22;54088;52.238;21.104;2022-09-29T08:20:13;14.10;74.60
67161;DHT22;54088;52.238;21.104;2022-09-29T08:22:39;14.90;72.40
67161;DHT22;54088;52.238;21.104;2022-09-29T08:25:06;15.40;68.80
67161;DHT22;54088;52.238;21.104;2022-09-29T08:27:32;16.00;68.80
67161;DHT22;54088;52.238;21.104;2022-09-29T08:29:58;17.50;64.40
67161;DHT22;54088;52.238;21.104;2022-09-29T08:32:24;19.30;60.10
67161;DHT22;54088;52.238;21.104;2022-09-29T08:34:49;20.00;55.80
67161;DHT22;54088;52.238;21.104;2022-09-29T08:37:15;20.40;55.30
67161;DHT22;54088;52.238;21.104;2022-09-29T08:39:42;20.50;53.80
67161;DHT22;54088;52.238;21.104;2022-09-29T08:42:23;19.60;53.30
67161;DHT22;54088;52.238;21.104;2022-09-29T08:44:56;19.00;55.80
67161;DHT22;54088;52.238;21.104;2022-09-29T08:47:31;18.70;55.00
67161;DHT22;54088;52.238;21.104;2022-09-29T08:50:02;18.40;56.50
67161;DHT22;54088;52.238;21.104;2022-09-29T08:52:33;18.30;56.80
67161;DHT22;54088;52.238;21.104;2022-09-29T08:55:22;18.50;55.90
67161;DHT22;54088;52.238;21.104;2022-09-29T08:57:56;20.10;55.60
67161;DHT22;54088;52.238;21.104;2022-09-29T09:00:35;20.00;53.30
67161;DHT22;54088;52.238;21.104;2022-09-29T09:06:02;20.30;53.00
67161;DHT22;54088;52.238;21.104;2022-09-29T09:14:18;18.60;55.10
67161;DHT22;54088;52.238;21.104;2022-09-29T09:22:49;17.70;57.70
67161;DHT22;54088;52.238;21.104;2022-09-29T09:25:33;17.40;58.30
67161;DHT22;54088;52.238;21.104;2022-09-29T09:33:25;16.80;59.60
67161;DHT22;54088;52.238;21.104;2022-09-29T09:35:57;16.80;59.40
67161;DHT22;54088;52.238;21.104;2022-09-29T09:38:27;16.70;60.40
67161;DHT22;54088;52.238;21.104;2022-09-29T09:40:59;16.80;60.40
67161;DHT22;54088;52.238;21.104;2022-09-29T09:43:30;17.00;60.00
67161;DHT22;54088;52.238;21.104;2022-09-29T09:54:15;16.40;61.10
67161;DHT22;54088;52.238;21.104;2022-09-29T09:57:37;16.00;62.20
67161;DHT22;54088;52.238;21.104;2022-09-29T10:02:47;15.60;63.80
67161;DHT22;54088;52.238;21.104;2022-09-29T10:05:18;15.50;64.20
67161;DHT22;54088;52.238;21.104;2022-09-29T10:07:45;15.50;64.80
67161;DHT22;54088;52.238;21.104;2022-09-29T10:10:19;15.50;63.70
67161;DHT22;54088;52.238;21.104;2022-09-29T10:12:46;15.40;64.10
67161;DHT22;54088;52.238;21.104;2022-09-29T10:15:35;15.40;64.50
67161;DHT22;54088;52.238;21.104;2022-09-29T10:18:12;15.40;64.40
67161;DHT22;54088;52.238;21.104;2022-09-29T10:20:39;15.40;64.70
67161;DHT22;54088;52.238;21.104;2022-09-29T10:23:27;15.50;64.70
67161;DHT22;54088;52.238;21.104;2022-09-29T10:26:14;15.40;65.40
67161;DHT22;54088;52.238;21.104;2022-09-29T10:28:58;15.40;65.70
67161;DHT22;54088;52.238;21.104;2022-09-29T10:36:31;15.10;65.50
67161;DHT22;54088;52.238;21.104;2022-09-29T10:38:58;14.90;66.30
67161;DHT22;54088;52.238;21.104;2022-09-29T10:41:24;15.10;66.50
67161;DHT22;54088;52.238;21.104;2022-09-29T10:43:50;15.20;66.00
67161;DHT22;54088;52.238;21.104;2022-09-29T10:46:52;15.20;65.90
67161;DHT22;54088;52.238;21.104;2022-09-29T10:49:20;15.20;65.60
67161;DHT22;54088;52.238;21.104;2022-09-29T10:52:13;15.10;65.60
67161;DHT22;54088;52.238;21.104;2022-09-29T10:54:56;14.90;66.00
67161;DHT22;54088;52.238;21.104;2022-09-29T10:57:25;14.90;66.30
67161;DHT22;54088;52.238;21.104;2022-09-29T10:59:52;15.00;66.10
67161;DHT22;54088;52.238;21.104;2022-09-29T11:02:31;15.20;65.80
67161;DHT22;54088;52.238;21.104;2022-09-29T11:05:04;15.30;65.80
67161;DHT22;54088;52.238;21.104;2022-09-29T11:07:43;15.20;65.60
67161;DHT22;54088;52.238;21.104;2022-09-29T11:10:38;15.10;65.40
67161;DHT22;54088;52.238;21.104;2022-09-29T11:16:18;14.80;65.60
67161;DHT22;54088;52.238;21.104;2022-09-29T11:18:47;15.10;65.50
67161;DHT22;54088;52.238;21.104;2022-09-29T11:43:26;15.60;64.40
67161;DHT22;54088;52.238;21.104;2022-09-29T11:51:15;15.70;64.70
67161;DHT22;54088;52.238;21.104;2022-09-29T12:18:55;15.60;63.90
67161;DHT22;54088;52.238;21.104;2022-09-29T12:21:32;15.70;64.00
67161;DHT22;54088;52.238;21.104;2022-09-29T12:24:02;15.70;63.80
67161;DHT22;54088;52.238;21.104;2022-09-29T12:26:30;15.80;63.90
67161;DHT22;54088;52.238;21.104;2022-09-29T12:31:51;15.80;63.40
67161;DHT22;54088;52.238;21.104;2022-09-29T12:37:18;15.80;63.20
67161;DHT22;54088;52.238;21.104;2022-09-29T12:40:02;15.40;62.80
67161;DHT22;54088;52.238;21.104;2022-09-29T12:50:59;15.40;63.60
67161;DHT22;54088;52.238;21.104;2022-09-29T12:56:26;15.60;62.70
67161;DHT22;54088;52.238;21.104;2022-09-29T12:59:24;15.50;62.00
67161;DHT22;54088;52.238;21.104;2022-09-29T13:01:51;15.50;62.60
67161;DHT22;54088;52.238;21.104;2022-09-29T13:16:25;15.00;63.30
67161;DHT22;54088;52.238;21.104;2022-09-29T13:30:11;14.90;62.70
67161;DHT22;54088;52.238;21.104;2022-09-29T13:32:46;14.90;63.80
67161;DHT22;54088;52.238;21.104;2022-09-29T13:35:17;14.90;63.20
67161;DHT22;54088;52.238;21.104;2022-09-29T13:38:04;14.90;64.30
67161;DHT22;54088;52.238;21.104;2022-09-29T13:40:30;14.90;64.70
67161;DHT22;54088;52.238;21.104;2022-09-29T13:42:57;14.90;64.70
67161;DHT22;54088;52.238;21.104;2022-09-29T13:47:50;14.90;64.50
67161;DHT22;54088;52.238;21.104;2022-09-29T13:50:44;14.70;64.60
67161;DHT22;54088;52.238;21.104;2022-09-29T14:00:53;14.90;64.80
67161;DHT22;54088;52.238;21.104;2022-09-29T14:03:42;14.80;64.50
67161;DHT22;54088;52.238;21.104;2022-09-29T14:06:22;14.80;65.40
67161;DHT22;54088;52.238;21.104;2022-09-29T14:09:05;14.80;66.00
67161;DHT22;54088;52.238;21.104;2022-09-29T14:11:49;14.90;65.20
67161;DHT22;54088;52.238;21.104;2022-09-29T14:14:36;14.80;65.70
67161;DHT22;54088;52.238;21.104;2022-09-29T14:17:20;14.80;65.70
67161;DHT22;54088;52.238;21.104;2022-09-29T14:20:17;14.60;66.40
67161;DHT22;54088;52.238;21.104;2022-09-29T14:22:53;14.50;67.20
67161;DHT22;54088;52.238;21.104;2022-09-29T14:33:11;14.00;66.60
67161;DHT22;54088;52.238;21.104;2022-09-29T14:38:35;13.80;66.30
67161;DHT22;54088;52.238;21.104;2022-09-29T14:55:14;13.40;67.40
67161;DHT22;54088;52.238;21.104;2022-09-29T15:00:21;13.40;67.90
67161;DHT22;54088;52.238;21.104;2022-09-29T15:02:51;13.30;67.70
67161;DHT22;54088;52.238;21.104;2022-09-29T15:05:30;13.20;68.00
67161;DHT22;54088;52.238;21.104;2022-09-29T15:07:57;13.20;68.60
67161;DHT22;54088;52.238;21.104;2022-09-29T15:10:29;13.10;68.80
67161;DHT22;54088;52.238;21.104;2022-09-29T15:15:47;13.00;68.40
67161;DHT22;54088;52.238;21.104;2022-09-29T15:21:42;12.90;68.50
67161;DHT22;54088;52.238;21.104;2022-09-29T15:26:48;12.80;69.00
67161;DHT22;54088;52.238;21.104;2022-09-29T15:29:16;12.70;68.90
67161;DHT22;54088;52.238;21.104;2022-09-29T15:31:45;12.70;69.10
67161;DHT22;54088;52.238;21.104;2022-09-29T15:34:18;12.60;69.20
67161;DHT22;54088;52.238;21.104;2022-09-29T15:36:47;12.50;68.90
67161;DHT22;54088;52.238;21.104;2022-09-29T15:42:18;12.40;69.00
67161;DHT22;54088;52.238;21.104;2022-09-29T15:45:14;12.40;69.60
67161;DHT22;54088;52.238;21.104;2022-09-29T15:47:40;12.40;70.00
67161;DHT22;54088;52.238;21.104;2022-09-29T15:50:18;12.40;70.00
67161;DHT22;54088;52.238;21.104;2022-09-29T15:52:44;12.40;70.10
67161;DHT22;54088;52.238;21.104;2022-09-29T15:55:15;12.30;70.10
67161;DHT22;54088;52.238;21.104;2022-09-29T15:57:46;12.30;70.40
67161;DHT22;54088;52.238;21.104;2022-09-29T16:05:31;12.10;72.00
67161;DHT22;54088;52.238;21.104;2022-09-29T16:08:05;12.00;72.30
67161;DHT22;54088;52.238;21.104;2022-09-29T16:10:40;11.90;73.00
67161;DHT22;54088;52.238;21.104;2022-09-29T16:13:13;11.90;73.20
67161;DHT22;54088;52.238;21.104;2022-09-29T16:15:44;11.80;73.60
67161;DHT22;54088;52.238;21.104;2022-09-29T16:20:56;11.70;74.00
67161;DHT22;54088;52.238;21.104;2022-09-29T16:23:32;11.60;74.30
67161;DHT22;54088;52.238;21.104;2022-09-29T16:28:32;11.50;75.60
67161;DHT22;54088;52.238;21.104;2022-09-29T16:31:02;11.40;76.20
67161;DHT22;54088;52.238;21.104;2022-09-29T16:33:28;11.40;76.80
67161;DHT22;54088;52.238;21.104;2022-09-29T16:36:10;11.30;77.20
67161;DHT22;54088;52.238;21.104;2022-09-29T16:38:43;11.30;77.20
67161;DHT22;54088;52.238;21.104;2022-09-29T16:41:25;11.20;77.30
67161;DHT22;54088;52.238;21.104;2022-09-29T16:46:28;11.00;78.20
67161;DHT22;54088;52.238;21.104;2022-09-29T16:48:54;10.90;78.70
67161;DHT22;54088;52.238;21.104;2022-09-29T16:51:21;10.80;79.00
67161;DHT22;54088;52.238;21.104;2022-09-29T16:53:48;10.70;79.30
67161;DHT22;54088;52.238;21.104;2022-09-29T16:56:28;10.70;79.90
67161;DHT22;54088;52.238;21.104;2022-09-29T16:59:22;10.70;80.80
67161;DHT22;54088;52.238;21.104;2022-09-29T17:01:47;10.60;80.80
67161;DHT22;54088;52.238;21.104;2022-09-29T17:04:14;10.60;80.80
67161;DHT22;54088;52.238;21.104;2022-09-29T17:06:45;10.60;80.80
67161;DHT22;54088;52.238;21.104;2022-09-29T17:09:16;10.50;81.10
67161;DHT22;54088;52.238;21.104;2022-09-29T17:11:43;10.40;81.20
67161;DHT22;54088;52.238;21.104;2022-09-29T17:14:10;10.30;81.40
67161;DHT22;54088;52.238;21.104;2022-09-29T17:16:37;10.30;81.70
67161;DHT22;54088;52.238;21.104;2022-09-29T17:19:05;10.30;81.80
67161;DHT22;54088;52.238;21.104;2022-09-29T17:21:30;10.20;82.00
67161;DHT22;54088;52.238;21.104;2022-09-29T17:23:56;10.20;82.10
67161;DHT22;54088;52.238;21.104;2022-09-29T17:26:39;10.20;82.50
67161;DHT22;54088;52.238;21.104;2022-09-29T17:29:24;10.10;82.60
67161;DHT22;54088;52.238;21.104;2022-09-29T17:31:50;10.10;82.90
67161;DHT22;54088;52.238;21.104;2022-09-29T17:34:16;10.00;83.70
67161;DHT22;54088;52.238;21.104;2022-09-29T17:36:42;10.00;84.20
67161;DHT22;54088;52.238;21.104;2022-09-29T17:39:08;10.00;84.40
67161;DHT22;54088;52.238;21.104;2022-09-29T17:41:34;10.00;84.30
67161;DHT22;54088;52.238;21.104;2022-09-29T17:44:00;9.90;84.70
67161;DHT22;54088;52.238;21.104;2022-09-29T17:46:36;9.90;85.00
67161;DHT22;54088;52.238;21.104;2022-09-29T17:49:02;9.80;85.30
67161;DHT22;54088;52.238;21.104;2022-09-29T17:51:28;9.70;85.70
67161;DHT22;54088;52.238;21.104;2022-09-29T17:53:54;9.70;85.90
67161;DHT22;54088;52.238;21.104;2022-09-29T17:56:22;9.60;86.10
67161;DHT22;54088;52.238;21.104;2022-09-29T17:58:51;9.60;86.20
67161;DHT22;54088;52.238;21.104;2022-09-29T18:01:22;9.60;86.30
67161;DHT22;54088;52.238;21.104;2022-09-29T18:03:48;9.50;86.10
67161;DHT22;54088;52.238;21.104;2022-09-29T18:06:20;9.50;86.10
67161;DHT22;54088;52.238;21.104;2022-09-29T18:08:49;9.50;86.40
67161;DHT22;54088;52.238;21.104;2022-09-29T18:11:16;9.40;86.50
67161;DHT22;54088;52.238;21.104;2022-09-29T18:13:43;9.40;86.50
67161;DHT22;54088;52.238;21.104;2022-09-29T18:16:15;9.40;86.40
67161;DHT22;54088;52.238;21.104;2022-09-29T18:18:41;9.30;86.60
67161;DHT22;54088;52.238;21.104;2022-09-29T18:21:07;9.30;87.20
67161;DHT22;54088;52.238;21.104;2022-09-29T18:23:32;9.20;87.30
67161;DHT22;54088;52.238;21.104;2022-09-29T18:25:59;9.30;87.60
67161;DHT22;54088;52.238;21.104;2022-09-29T18:28:25;9.20;87.40
67161;DHT22;54088;52.238;21.104;2022-09-29T18:30:56;9.20;87.40
67161;DHT22;54088;52.238;21.104;2022-09-29T18:33:26;9.20;87.30
67161;DHT22;54088;52.238;21.104;2022-09-29T18:35:53;9.20;87.20
67161;DHT22;54088;52.238;21.104;2022-09-29T18:38:19;9.10;87.40
67161;DHT22;54088;52.238;21.104;2022-09-29T18:40:45;9.00;87.60
67161;DHT22;54088;52.238;21.104;2022-09-29T18:43:12;9.00;87.70
67161;DHT22;54088;52.238;21.104;2022-09-29T18:45:39;8.90;87.90
67161;DHT22;54088;52.238;21.104;2022-09-29T18:48:11;9.00;88.00
67161;DHT22;54088;52.238;21.104;2022-09-29T18:50:40;9.00;88.00
67161;DHT22;54088;52.238;21.104;2022-09-29T18:53:08;8.90;87.90
67161;DHT22;54088;52.238;21.104;2022-09-29T18:55:34;8.90;88.10
67161;DHT22;54088;52.238;21.104;2022-09-29T18:58:00;8.90;88.30
67161;DHT22;54088;52.238;21.104;2022-09-29T19:00:30;8.90;88.80
67161;DHT22;54088;52.238;21.104;2022-09-29T19:02:56;8.80;89.10
67161;DHT22;54088;52.238;21.104;2022-09-29T19:05:26;8.90;89.50
67161;DHT22;54088;52.238;21.104;2022-09-29T19:07:59;8.80;89.90
67161;DHT22;54088;52.238;21.104;2022-09-29T19:10:26;8.80;89.90
67161;DHT22;54088;52.238;21.104;2022-09-29T19:12:55;8.80;89.80
67161;DHT22;54088;52.238;21.104;2022-09-29T19:15:24;8.70;89.70
67161;DHT22;54088;52.238;21.104;2022-09-29T19:17:52;8.70;89.80
67161;DHT22;54088;52.238;21.104;2022-09-29T19:20:22;8.60;89.90
67161;DHT22;54088;52.238;21.104;2022-09-29T19:22:49;8.60;90.00
67161;DHT22;54088;52.238;21.104;2022-09-29T19:25:18;8.60;90.00
67161;DHT22;54088;52.238;21.104;2022-09-29T19:27:45;8.60;90.10
67161;DHT22;54088;52.238;21.104;2022-09-29T19:30:13;8.60;90.00